createdAt,value
2022-10-29T00:01:23.702Z,48.54
2022-10-29T00:06:23.966Z,49.84
2022-10-29T00:11:23.654Z,49.01
2022-10-29T00:16:26.173Z,49.40
2022-10-29T00:21:27.866Z,48.91
2022-10-29T00:26:30.482Z,49.23
2022-10-29T00:31:29.467Z,49.59
2022-10-29T00:36:33.422Z,49.81
2022-10-29T00:41:32.317Z,49.67
2022-10-29T00:53:43.203Z,49.87
2022-10-29T00:58:42.375Z,50.02
2022-10-29T01:03:41.694Z,49.60
2022-10-29T01:08:42.168Z,50.22
2022-10-29T01:13:58.905Z,49.99
2022-10-29T01:19:07.004Z,49.72
2022-10-29T01:24:56.059Z,49.80
2022-10-29T01:30:07.207Z,49.36
2022-10-29T01:35:16.488Z,49.92
2022-10-29T01:40:22.859Z,49.68
2022-10-29T01:45:28.249Z,49.55
2022-10-29T01:50:29.553Z,49.36
2022-10-29T01:55:34.047Z,49.76
2022-10-29T02:00:39.191Z,49.60
2022-10-29T02:05:49.940Z,49.61
2022-10-29T02:10:55.928Z,50.28
2022-10-29T02:15:57.803Z,50.10
2022-10-29T02:20:57.996Z,50.09
2022-10-29T02:25:57.118Z,50.19
2022-10-29T02:30:55.996Z,50.49
2022-10-29T02:35:55.218Z,50.82
2022-10-29T02:40:55.476Z,50.91
2022-10-29T02:46:12.818Z,50.97
2022-10-29T02:51:12.037Z,51.47
2022-10-29T02:56:12.752Z,51.53
2022-10-29T03:01:11.939Z,51.55
2022-10-29T03:07:01.722Z,51.82
2022-10-29T03:12:05.504Z,52.04
2022-10-29T03:17:06.526Z,52.40
2022-10-29T03:22:05.372Z,52.03
2022-10-29T03:27:05.826Z,52.50
2022-10-29T03:32:04.689Z,52.57
2022-10-29T03:37:03.836Z,52.53
2022-10-29T03:42:04.224Z,52.47
2022-10-29T03:47:06.979Z,53.17
2022-10-29T03:52:06.104Z,54.03
2022-10-29T03:57:05.447Z,53.33
2022-10-29T04:02:07.619Z,53.30
2022-10-29T04:07:06.625Z,53.21
2022-10-29T04:12:06.339Z,53.05
2022-10-29T04:17:06.715Z,53.29
2022-10-29T04:32:47.129Z,53.33
2022-10-29T04:37:46.175Z,53.89
2022-10-29T04:42:45.057Z,53.69
2022-10-29T04:47:45.640Z,53.70
2022-10-29T04:52:44.526Z,53.91
2022-10-29T04:57:43.727Z,53.56
2022-10-29T05:02:42.548Z,53.89
2022-10-29T05:07:42.925Z,54.06
2022-10-29T05:12:42.195Z,53.71
2022-10-29T05:17:41.002Z,94.41
2022-10-29T05:22:39.723Z,81.13
2022-10-29T05:27:39.872Z,63.73
2022-10-29T05:32:41.827Z,60.44
2022-10-29T05:37:44.236Z,58.50
2022-10-29T05:42:47.543Z,57.67
2022-10-29T05:47:50.218Z,57.19
2022-10-29T05:52:57.892Z,56.90
2022-10-29T05:57:59.844Z,56.87
2022-10-29T06:02:59.738Z,57.06
2022-10-29T06:08:01.558Z,56.69
2022-10-29T06:13:04.164Z,57.02
2022-10-29T06:18:03.347Z,56.79
2022-10-29T06:23:02.344Z,56.98
2022-10-29T06:28:04.656Z,56.63
2022-10-29T06:33:05.654Z,56.56
2022-10-29T06:38:10.849Z,56.72
2022-10-29T06:43:13.931Z,56.82
2022-10-29T06:48:14.570Z,56.72
2022-10-29T06:53:16.547Z,56.78
2022-10-29T06:58:18.944Z,56.64
2022-10-29T07:03:20.204Z,56.77
2022-10-29T07:08:19.219Z,56.38
2022-10-29T07:13:19.593Z,56.00
2022-10-29T07:18:18.692Z,56.02
2022-10-29T07:23:17.992Z,56.61
2022-10-29T07:28:21.018Z,56.95
2022-10-29T07:33:20.047Z,58.14
2022-10-29T07:38:19.393Z,58.24
2022-10-29T07:43:21.221Z,58.97
2022-10-29T07:48:23.132Z,57.35
2022-10-29T07:53:21.941Z,56.98
2022-10-29T07:58:22.795Z,56.74
2022-10-29T08:03:21.694Z,56.60
2022-10-29T08:08:22.326Z,56.41
2022-10-29T08:13:22.636Z,55.65
2022-10-29T08:18:21.655Z,55.37
2022-10-29T08:23:22.609Z,54.51
2022-10-29T08:28:25.770Z,52.85
2022-10-29T08:33:25.242Z,51.01
2022-10-29T08:38:24.636Z,51.02
2022-10-29T08:43:48.438Z,49.80
2022-10-29T08:48:52.893Z,46.07
2022-10-29T08:54:24.899Z,44.90
2022-10-29T08:59:18.180Z,44.64
2022-10-29T09:04:25.041Z,43.07
2022-10-29T09:09:32.660Z,41.23
2022-10-29T09:14:50.108Z,40.59
2022-10-29T09:20:16.312Z,39.42
2022-10-29T09:25:20.476Z,38.73
2022-10-29T09:30:23.022Z,38.36
2022-10-29T09:35:24.821Z,37.54
2022-10-29T09:40:33.700Z,36.21
2022-10-29T09:45:46.672Z,35.75
2022-10-29T09:50:53.974Z,35.96
2022-10-29T09:55:54.025Z,34.05
2022-10-29T10:07:01.866Z,33.65
2022-10-29T10:12:00.911Z,31.68
2022-10-29T10:17:02.866Z,32.09
2022-10-29T10:22:03.982Z,31.17
2022-10-29T10:27:03.548Z,30.42
2022-10-29T10:32:17.817Z,29.83
2022-10-29T10:37:20.247Z,29.99
2022-10-29T10:42:23.889Z,28.23
2022-10-29T10:47:28.914Z,27.81
2022-10-29T10:52:32.107Z,27.28
2022-10-29T10:57:36.520Z,26.26
2022-10-29T11:02:49.186Z,26.91
2022-10-29T11:07:56.319Z,26.01
2022-10-29T11:12:57.992Z,25.04
2022-10-29T11:18:04.285Z,28.27
2022-10-29T11:23:22.364Z,24.89
2022-10-29T11:28:27.839Z,22.95
2022-10-29T11:33:37.357Z,22.46
2022-10-29T11:38:46.731Z,23.09
2022-10-29T11:43:48.231Z,21.79
2022-10-29T11:48:57.867Z,21.68
2022-10-29T11:54:02.636Z,21.32
2022-10-29T11:59:07.723Z,20.24
2022-10-29T12:04:24.463Z,19.45
2022-10-29T12:09:43.726Z,18.82
2022-10-29T12:14:49.236Z,19.78
2022-10-29T12:19:57.320Z,20.02
2022-10-29T12:25:21.747Z,19.96
2022-10-29T12:30:23.610Z,19.54
2022-10-29T12:35:30.820Z,19.76
2022-10-29T12:40:32.656Z,19.26
2022-10-29T12:45:53.044Z,19.34
2022-10-29T12:51:09.722Z,19.60
2022-10-29T12:56:10.746Z,20.07
2022-10-29T13:07:23.786Z,19.84
2022-10-29T13:13:01.504Z,18.95
2022-10-29T13:18:19.397Z,19.59
2022-10-29T13:24:02.847Z,19.54
2022-10-29T13:29:02.007Z,21.15
2022-10-29T13:34:00.824Z,19.74
2022-10-29T13:39:08.254Z,19.31
2022-10-29T13:44:12.705Z,20.06
2022-10-29T13:49:16.933Z,20.11
2022-10-29T13:59:36.872Z,20.07
2022-10-29T14:04:40.386Z,20.43
2022-10-29T14:09:45.551Z,20.41
2022-10-29T14:14:52.989Z,21.07
2022-10-29T14:19:53.585Z,20.50
2022-10-29T14:24:53.862Z,21.77
2022-10-29T14:29:54.702Z,21.08
2022-10-29T14:34:54.991Z,21.98
2022-10-29T14:39:59.480Z,22.64
2022-10-29T14:45:01.291Z,24.45
2022-10-29T14:50:02.979Z,23.16
2022-10-29T14:55:07.954Z,25.25
2022-10-29T15:00:08.441Z,26.83
2022-10-29T15:05:24.660Z,28.15
2022-10-29T15:10:26.574Z,29.26
2022-10-29T15:15:28.807Z,30.56
2022-10-29T15:20:32.760Z,31.08
2022-10-29T15:25:36.790Z,31.92
2022-10-29T15:30:37.435Z,32.87
2022-10-29T15:35:37.089Z,33.23
2022-10-29T15:40:37.491Z,34.53
2022-10-29T15:45:36.644Z,35.54
2022-10-29T15:50:42.926Z,31.63
2022-10-29T15:55:43.368Z,30.89
2022-10-29T16:00:42.182Z,31.58
2022-10-29T16:05:41.553Z,31.79
2022-10-29T16:10:40.711Z,32.38
2022-10-29T16:15:44.085Z,32.38
2022-10-29T16:20:43.498Z,33.15
2022-10-29T16:25:43.247Z,33.58
2022-10-29T16:30:44.296Z,33.83
2022-10-29T16:35:43.325Z,34.12
2022-10-29T16:40:46.765Z,34.66
2022-10-29T16:45:50.428Z,35.24
2022-10-29T16:50:55.184Z,35.63
2022-10-29T16:56:03.050Z,35.92
2022-10-29T17:01:12.825Z,36.40
2022-10-29T17:06:12.339Z,36.44
2022-10-29T17:11:11.108Z,37.30
2022-10-29T17:16:14.836Z,37.95
2022-10-29T17:21:13.719Z,37.88
2022-10-29T17:26:12.618Z,37.85
2022-10-29T17:31:12.979Z,38.19
2022-10-29T17:36:14.130Z,38.50
2022-10-29T17:41:21.311Z,38.35
2022-10-29T17:46:21.931Z,38.52
2022-10-29T17:51:21.022Z,38.90
2022-10-29T17:56:20.120Z,38.95
2022-10-29T18:01:19.399Z,39.45
2022-10-29T18:06:20.462Z,39.32
2022-10-29T18:11:21.545Z,39.29
2022-10-29T18:16:22.780Z,39.64
2022-10-29T18:21:25.080Z,39.55
2022-10-29T18:26:27.554Z,39.94
2022-10-29T18:31:27.520Z,39.74
2022-10-29T18:36:27.876Z,40.41
2022-10-29T18:41:27.463Z,40.64
2022-10-29T18:46:26.729Z,40.63
2022-10-29T18:51:36.676Z,40.94
2022-10-29T18:56:38.155Z,40.97
2022-10-29T19:01:38.534Z,41.11
2022-10-29T19:06:40.588Z,41.58
2022-10-29T19:11:39.744Z,42.10
2022-10-29T19:16:44.036Z,42.14
2022-10-29T19:21:44.729Z,42.11
2022-10-29T19:26:48.731Z,42.25
2022-10-29T19:31:54.836Z,42.73
2022-10-29T19:36:57.628Z,43.37
2022-10-29T19:42:02.764Z,42.93
2022-10-29T19:47:01.930Z,42.66
2022-10-29T19:52:03.219Z,43.24
2022-10-29T19:57:08.471Z,43.57
2022-10-29T20:02:07.296Z,43.31
2022-10-29T20:07:12.367Z,43.99
2022-10-29T20:12:11.983Z,44.09
2022-10-29T20:17:13.614Z,44.24
2022-10-29T20:22:15.244Z,44.22
2022-10-29T20:27:17.284Z,44.23
2022-10-29T20:32:19.981Z,44.81
2022-10-29T20:37:20.431Z,45.28
2022-10-29T20:42:19.338Z,45.78
2022-10-29T20:47:18.317Z,45.83
2022-10-29T20:52:17.155Z,45.69
2022-10-29T20:57:17.495Z,45.87
2022-10-29T21:02:16.351Z,45.67
2022-10-29T21:07:18.992Z,45.92
2022-10-29T21:12:19.347Z,46.25
2022-10-29T21:17:18.178Z,46.29
2022-10-29T21:22:19.231Z,46.19
2022-10-29T21:27:19.591Z,46.23
2022-10-29T21:32:18.517Z,46.37
2022-10-29T21:37:17.727Z,46.34
2022-10-29T21:42:31.383Z,46.44
2022-10-29T21:47:30.235Z,46.47
2022-10-29T21:52:29.170Z,46.56
2022-10-29T21:57:29.384Z,46.68
2022-10-29T22:02:29.443Z,47.20
2022-10-29T22:07:28.367Z,47.66
2022-10-29T22:12:27.327Z,47.54
2022-10-29T22:17:28.672Z,47.76
2022-10-29T22:22:27.602Z,47.67
2022-10-29T22:27:26.497Z,47.97
2022-10-29T22:32:25.323Z,47.92
2022-10-29T22:37:25.742Z,48.38
2022-10-29T22:42:24.637Z,48.18
2022-10-29T22:47:23.491Z,48.29
2022-10-29T22:52:22.700Z,48.54
2022-10-29T22:57:23.103Z,48.80
2022-10-29T23:02:22.073Z,49.26
2022-10-29T23:07:21.277Z,49.45
2022-10-29T23:12:20.287Z,49.48
2022-10-29T23:17:20.667Z,49.57
2022-10-29T23:22:20.972Z,49.83
2022-10-29T23:27:22.235Z,49.73
2022-10-29T23:32:23.385Z,49.88
2022-10-29T23:37:22.234Z,50.11
2022-10-29T23:42:21.188Z,50.63
2022-10-29T23:47:20.068Z,50.32
2022-10-29T23:52:20.429Z,50.31
2022-10-29T23:57:19.394Z,50.32
